Time;durP1;ratioP1;P1;durP2;ratioP2;P2;SDS_P1;SDS_P2;PMS_P1;PMS_P2;Temp;Humidity;BMP_temperature;BMP_pressure;BME280_temperature;BME280_humidity;BME280_pressure;Samples;Min_cycle;Max_cycle;Signal;HPM_P1;HPM_P2
2020/12/12 00:01:42;;;;;;;110.40;53.00;;;;;;;3.92;100.00;94561.53;5072648;28;20199;-66
2020/12/12 00:04:09;;;;;;;90.37;46.37;;;;;;;3.97;100.00;94556.34;5072548;28;20192;-67
2020/12/12 00:06:36;;;;;;;97.17;50.23;;;;;;;4.01;100.00;94552.16;5072843;28;20202;-66
2020/12/12 00:09:03;;;;;;;93.10;49.63;;;;;;;4.02;100.00;94547.81;5072520;28;20192;-67
2020/12/12 00:11:30;;;;;;;118.63;55.83;;;;;;;4.00;100.00;94542.94;5072480;28;20192;-67
2020/12/12 00:13:57;;;;;;;112.87;51.43;;;;;;;4.03;100.00;94534.69;5071805;28;20656;-65
2020/12/12 00:16:24;;;;;;;101.37;47.63;;;;;;;4.01;100.00;94541.13;5072431;28;20197;-67
2020/12/12 00:18:51;;;;;;;87.23;43.93;;;;;;;4.01;100.00;94535.97;5072624;28;20192;-66
2020/12/12 00:21:21;;;;;;;80.87;40.73;;;;;;;4.08;100.00;94536.44;5072411;28;20207;-65
2020/12/12 00:23:49;;;;;;;98.20;47.90;;;;;;;4.09;100.00;94543.06;5073140;28;20193;-66
2020/12/12 00:26:19;;;;;;;96.60;48.40;;;;;;;4.07;100.00;94529.75;5072391;28;20211;-66
2020/12/12 00:28:47;;;;;;;95.40;51.40;;;;;;;4.05;100.00;94530.00;5072170;28;20679;-63
2020/12/12 00:31:17;;;;;;;97.30;50.10;;;;;;;4.05;100.00;94530.00;5072025;28;20209;-66
2020/12/12 00:33:43;;;;;;;89.57;47.57;;;;;;;4.03;100.00;94519.25;5072168;28;20738;-65
2020/12/12 00:36:10;;;;;;;88.27;46.27;;;;;;;4.08;100.00;94524.34;5072040;28;20192;-66
2020/12/12 00:38:37;;;;;;;86.30;45.13;;;;;;;4.09;100.00;94520.72;5072111;28;20193;-66
2020/12/12 00:41:05;;;;;;;78.93;46.20;;;;;;;4.09;100.00;94525.84;5071708;28;20236;-66
2020/12/12 00:43:32;;;;;;;82.17;45.03;;;;;;;4.13;100.00;94514.00;5072181;28;20192;-65
2020/12/12 00:46:00;;;;;;;75.67;45.67;;;;;;;4.20;100.00;94514.41;5072321;28;20201;-66
2020/12/12 00:48:27;;;;;;;74.60;42.30;;;;;;;4.24;100.00;94505.09;5071885;28;20197;-66
2020/12/12 00:50:54;;;;;;;71.40;37.73;;;;;;;4.27;100.00;94509.69;5071843;28;20203;-66
2020/12/12 00:53:20;;;;;;;72.70;39.10;;;;;;;4.29;100.00;94507.59;5071894;28;20699;-67
2020/12/12 00:55:47;;;;;;;67.23;38.23;;;;;;;4.28;100.00;94506.06;5071541;28;20468;-66
2020/12/12 00:58:14;;;;;;;64.80;36.40;;;;;;;4.30;100.00;94503.22;5071954;28;20192;-67
2020/12/12 01:00:41;;;;;;;68.80;36.23;;;;;;;4.33;100.00;94506.00;5071517;28;20192;-66
2020/12/12 01:03:09;;;;;;;64.40;37.60;;;;;;;4.32;100.00;94512.19;5071608;28;20201;-65
2020/12/12 01:05:35;;;;;;;66.00;39.17;;;;;;;4.31;100.00;94510.66;5071632;28;20197;-67
2020/12/12 01:08:03;;;;;;;68.50;36.53;;;;;;;4.31;100.00;94508.09;5071445;28;20618;-66
2020/12/12 01:10:29;;;;;;;67.73;37.77;;;;;;;4.41;100.00;94503.84;5071331;28;20200;-67
2020/12/12 01:12:56;;;;;;;74.33;40.27;;;;;;;4.37;100.00;94500.31;5071463;28;20608;-67
2020/12/12 01:15:23;;;;;;;105.40;56.27;;;;;;;4.34;100.00;94499.81;5071409;28;20282;-66
2020/12/12 01:17:50;;;;;;;111.33;59.83;;;;;;;4.34;100.00;94494.66;5071354;28;20668;-65
2020/12/12 01:20:18;;;;;;;89.77;51.90;;;;;;;4.38;100.00;94499.28;5071088;28;20672;-67
2020/12/12 01:22:44;;;;;;;82.80;45.63;;;;;;;4.31;100.00;94494.47;5071157;28;20284;-67
2020/12/12 01:25:11;;;;;;;68.80;40.33;;;;;;;4.45;100.00;94494.53;5070297;28;20204;-66
2020/12/12 01:27:38;;;;;;;71.30;42.20;;;;;;;4.52;100.00;94489.81;5070988;28;20192;-68
2020/12/12 01:30:05;;;;;;;79.13;43.33;;;;;;;4.41;100.00;94485.84;5070859;28;20203;-68
2020/12/12 01:32:32;;;;;;;78.67;43.90;;;;;;;4.43;100.00;94483.78;5070915;28;20637;-69
2020/12/12 01:34:59;;;;;;;77.10;43.80;;;;;;;4.42;100.00;94487.38;5070912;28;20228;-66
2020/12/12 01:37:26;;;;;;;79.10;45.73;;;;;;;4.40;100.00;94479.16;5070762;28;20203;-66
2020/12/12 01:39:53;;;;;;;73.60;43.23;;;;;;;4.41;100.00;94481.47;5070521;28;20188;-66
2020/12/12 01:42:20;;;;;;;76.77;44.13;;;;;;;4.47;100.00;94484.75;5070689;28;20196;-66
2020/12/12 01:44:46;;;;;;;80.63;45.53;;;;;;;4.40;100.00;94474.78;5070817;28;20196;-66
2020/12/12 01:47:13;;;;;;;79.60;44.77;;;;;;;4.42;100.00;94470.16;5070782;28;20276;-66
2020/12/12 01:49:40;;;;;;;85.53;46.03;;;;;;;4.47;100.00;94471.88;5070511;28;20193;-66
2020/12/12 01:52:07;;;;;;;86.80;47.30;;;;;;;4.45;100.00;94468.81;5070563;28;20643;-65
2020/12/12 01:54:35;;;;;;;111.20;54.73;;;;;;;4.36;100.00;94460.22;5070401;28;20224;-66
2020/12/12 01:57:04;;;;;;;123.17;58.40;;;;;;;4.26;100.00;94459.31;5070524;28;20208;-63
2020/12/12 01:59:31;;;;;;;88.33;46.73;;;;;;;4.29;100.00;94455.41;5070458;28;20197;-66
2020/12/12 02:02:01;;;;;;;84.20;47.57;;;;;;;4.21;100.00;94456.81;5070562;28;20199;-64
2020/12/12 02:04:30;;;;;;;76.17;41.87;;;;;;;4.29;100.00;94452.84;5070744;28;20200;-66
2020/12/12 02:06:57;;;;;;;70.90;39.63;;;;;;;4.29;100.00;94443.31;5070334;28;20192;-67
2020/12/12 02:09:24;;;;;;;74.83;40.20;;;;;;;4.28;100.00;94444.34;5070500;28;20189;-67
2020/12/12 02:11:52;;;;;;;63.83;36.43;;;;;;;4.29;100.00;94440.75;5070445;28;20520;-67
2020/12/12 02:14:19;;;;;;;62.20;35.80;;;;;;;4.32;100.00;94440.19;5070239;28;20762;-66
2020/12/12 02:16:54;;;;;;;60.63;36.50;;;;;;;4.29;100.00;94429.69;5070333;28;20223;-66
2020/12/12 02:19:21;;;;;;;66.70;38.17;;;;;;;4.33;100.00;94436.56;5070314;28;20198;-67
2020/12/12 02:21:53;;;;;;;64.30;37.53;;;;;;;4.38;100.00;94435.00;5070347;28;20192;-66
2020/12/12 02:24:20;;;;;;;54.87;33.70;;;;;;;4.44;100.00;94428.69;5070111;28;20588;-66
2020/12/12 02:26:47;;;;;;;58.73;35.27;;;;;;;4.47;100.00;94430.72;5070288;28;20203;-67
2020/12/12 02:29:14;;;;;;;56.37;35.57;;;;;;;4.50;100.00;94430.91;5070342;28;20232;-66
2020/12/12 02:31:41;;;;;;;65.90;37.40;;;;;;;4.56;100.00;94429.03;5070446;28;20695;-68
2020/12/12 02:34:08;;;;;;;62.73;35.87;;;;;;;4.60;100.00;94422.28;5070019;28;20239;-67
2020/12/12 02:36:37;;;;;;;59.10;36.37;;;;;;;4.64;100.00;94426.59;5070031;28;20568;-67
2020/12/12 02:39:06;;;;;;;63.50;37.03;;;;;;;4.60;100.00;94424.84;5070239;28;20572;-67
2020/12/12 02:41:33;;;;;;;65.50;40.23;;;;;;;4.61;100.00;94416.88;5070397;28;20230;-67
2020/12/12 02:44:00;;;;;;;67.90;38.63;;;;;;;4.62;100.00;94417.63;5069914;28;20517;-68
2020/12/12 02:46:27;;;;;;;60.47;37.23;;;;;;;4.67;100.00;94420.13;5070214;28;20192;-68
2020/12/12 02:48:54;;;;;;;56.23;35.20;;;;;;;4.70;100.00;94412.59;5069807;28;20196;-68
2020/12/12 02:51:21;;;;;;;55.50;33.87;;;;;;;4.71;100.00;94405.66;5070075;28;20199;-67
2020/12/12 02:53:48;;;;;;;56.10;34.87;;;;;;;4.80;100.00;94403.94;5069757;28;20228;-68
2020/12/12 02:56:16;;;;;;;50.73;33.17;;;;;;;4.78;100.00;94400.91;5069969;28;20196;-68
2020/12/12 02:58:43;;;;;;;50.50;31.83;;;;;;;4.83;100.00;94403.41;5069806;28;20204;-67
2020/12/12 03:01:10;;;;;;;45.07;28.40;;;;;;;4.89;100.00;94396.31;5070048;28;20203;-67
2020/12/12 03:03:37;;;;;;;47.93;28.93;;;;;;;4.94;100.00;94396.25;5069930;28;20197;-68
2020/12/12 03:06:04;;;;;;;58.57;30.67;;;;;;;4.99;100.00;94394.34;5069672;28;20283;-65
2020/12/12 03:08:31;;;;;;;59.37;29.73;;;;;;;4.98;100.00;94395.38;5069813;28;20203;-65
2020/12/12 03:10:58;;;;;;;53.67;28.83;;;;;;;5.02;100.00;94393.78;5069731;28;20196;-67
2020/12/12 03:13:26;;;;;;;39.73;24.73;;;;;;;5.06;100.00;94397.31;5069621;28;20641;-67
2020/12/12 03:15:53;;;;;;;37.10;22.77;;;;;;;5.10;100.00;94387.97;5069742;28;20199;-66
2020/12/12 03:18:19;;;;;;;40.47;22.40;;;;;;;5.17;100.00;94388.38;5069613;28;20189;-68
2020/12/12 03:20:46;;;;;;;36.07;22.30;;;;;;;5.10;100.00;94390.53;5069633;28;20192;-66
2020/12/12 03:23:13;;;;;;;38.50;22.33;;;;;;;5.14;100.00;94388.91;5069554;28;20202;-67
2020/12/12 03:25:40;;;;;;;35.37;21.40;;;;;;;5.22;100.00;94384.16;5069609;28;20199;-67
2020/12/12 03:28:07;;;;;;;31.23;19.77;;;;;;;5.29;100.00;94379.38;5069652;28;20292;-67
2020/12/12 03:30:38;;;;;;;27.23;16.73;;;;;;;5.27;100.00;94381.50;5069532;28;20216;-67
2020/12/12 03:33:05;;;;;;;30.43;17.93;;;;;;;5.26;100.00;94382.53;5069523;28;20192;-67
2020/12/12 03:35:32;;;;;;;25.47;16.53;;;;;;;5.21;100.00;94378.25;5069466;28;20224;-68
2020/12/12 03:37:59;;;;;;;27.87;17.60;;;;;;;5.27;100.00;94369.38;5069391;28;20766;-67
2020/12/12 03:40:26;;;;;;;29.37;18.70;;;;;;;5.31;100.00;94372.13;5069194;28;20244;-67
2020/12/12 03:42:53;;;;;;;30.90;18.07;;;;;;;5.32;100.00;94373.66;5069722;28;20281;-68
2020/12/12 03:45:21;;;;;;;29.13;18.13;;;;;;;5.37;100.00;94371.00;5069352;28;20192;-67
2020/12/12 03:47:49;;;;;;;26.67;17.03;;;;;;;5.40;100.00;94375.56;5070087;28;20427;-67
2020/12/12 03:50:17;;;;;;;25.03;15.83;;;;;;;5.43;100.00;94365.44;5072931;28;20228;-67
2020/12/12 03:52:44;;;;;;;20.70;13.70;;;;;;;5.47;100.00;94370.78;5072881;28;20654;-67
2020/12/12 03:55:10;;;;;;;18.80;13.20;;;;;;;5.50;100.00;94368.41;5072795;28;20335;-68
2020/12/12 03:57:37;;;;;;;21.90;12.37;;;;;;;5.57;100.00;94360.28;5072892;28;20190;-67
2020/12/12 04:00:05;;;;;;;27.77;12.43;;;;;;;5.58;100.00;94359.97;5072760;28;20624;-68
2020/12/12 04:02:32;;;;;;;21.73;10.17;;;;;;;5.64;100.00;94353.66;5072698;28;20576;-67
2020/12/12 04:05:00;;;;;;;25.33;11.10;;;;;;;5.66;100.00;94355.97;5072814;28;20196;-67
2020/12/12 04:07:26;;;;;;;25.10;10.03;;;;;;;5.63;100.00;94357.28;5072656;28;20188;-66
2020/12/12 04:09:53;;;;;;;14.33;7.20;;;;;;;5.69;100.00;94355.38;5072853;28;20662;-68
2020/12/12 04:12:20;;;;;;;10.93;6.93;;;;;;;5.79;100.00;94355.16;5072590;28;20195;-67
2020/12/12 04:14:47;;;;;;;14.07;7.83;;;;;;;5.82;100.00;94349.44;5072444;28;20238;-68
2020/12/12 04:17:13;;;;;;;13.10;8.23;;;;;;;5.79;100.00;94350.00;5072508;28;20282;-68
2020/12/12 04:19:40;;;;;;;21.73;10.43;;;;;;;5.78;100.00;94348.47;5072429;28;20207;-68
2020/12/12 04:22:08;;;;;;;20.27;10.70;;;;;;;5.80;100.00;94353.34;5072389;28;20201;-68
2020/12/12 04:24:35;;;;;;;30.27;16.10;;;;;;;5.77;100.00;94349.56;5072395;28;20193;-66
2020/12/12 04:27:02;;;;;;;34.70;16.37;;;;;;;5.84;100.00;94351.72;5072603;28;20196;-68
2020/12/12 04:29:28;;;;;;;32.90;14.70;;;;;;;5.86;100.00;94340.06;5072368;28;20201;-66
2020/12/12 04:31:55;;;;;;;33.60;14.00;;;;;;;5.95;100.00;94340.16;5072129;28;20714;-67
2020/12/12 04:34:22;;;;;;;38.97;14.20;;;;;;;5.88;100.00;94340.56;5072069;28;20600;-67
2020/12/12 04:36:49;;;;;;;39.63;14.03;;;;;;;5.85;100.00;94340.34;5072099;28;20602;-68
2020/12/12 04:39:16;;;;;;;28.93;11.67;;;;;;;5.82;100.00;94336.56;5072152;28;20194;-66
2020/12/12 04:41:44;;;;;;;28.67;13.83;;;;;;;5.81;100.00;94335.03;5072159;28;20229;-66
2020/12/12 04:44:12;;;;;;;26.97;15.47;;;;;;;5.78;100.00;94325.28;5071818;28;20191;-67
2020/12/12 04:46:40;;;;;;;28.57;14.60;;;;;;;5.83;100.00;94327.75;5071989;28;20589;-66
2020/12/12 04:49:07;;;;;;;34.83;16.27;;;;;;;5.79;100.00;94329.38;5072180;28;20199;-68
2020/12/12 04:51:35;;;;;;;34.23;16.00;;;;;;;5.86;100.00;94334.91;5071814;28;20588;-68
2020/12/12 04:54:02;;;;;;;36.93;17.67;;;;;;;5.93;100.00;94329.38;5071743;28;20387;-67
2020/12/12 04:56:36;;;;;;;36.43;17.83;;;;;;;5.95;100.00;94325.47;5071755;28;20283;-67
2020/12/12 04:59:04;;;;;;;24.27;14.73;;;;;;;5.87;100.00;94322.81;5071577;28;20203;-66
2020/12/12 05:01:33;;;;;;;23.33;12.83;;;;;;;5.72;100.00;94318.75;5072031;28;20192;-65
2020/12/12 05:04:01;;;;;;;22.87;14.20;;;;;;;5.72;100.00;94321.31;5071488;28;20200;-67
2020/12/12 05:06:29;;;;;;;19.30;14.00;;;;;;;5.71;100.00;94324.94;5071745;28;20219;-68
2020/12/12 05:08:56;;;;;;;22.83;16.43;;;;;;;5.71;100.00;94317.22;5071576;28;20227;-67
2020/12/12 05:11:24;;;;;;;24.10;18.23;;;;;;;5.72;100.00;94320.53;5071514;28;20197;-68
2020/12/12 05:13:52;;;;;;;20.13;14.83;;;;;;;5.72;100.00;94312.81;5071333;28;20638;-67
2020/12/12 05:16:19;;;;;;;20.23;13.80;;;;;;;5.67;100.00;94313.69;5071435;28;20206;-68
2020/12/12 05:18:47;;;;;;;19.33;13.87;;;;;;;5.64;100.00;94314.25;5071625;28;20185;-67
2020/12/12 05:21:14;;;;;;;16.50;11.43;;;;;;;5.63;100.00;94315.31;5071152;28;20194;-66
2020/12/12 05:23:44;;;;;;;16.03;10.67;;;;;;;5.56;100.00;94313.16;5071286;28;20200;-68
2020/12/12 05:26:12;;;;;;;15.57;9.23;;;;;;;5.54;100.00;94309.31;5071246;28;20683;-67
2020/12/12 05:28:40;;;;;;;13.40;9.73;;;;;;;5.48;100.00;94300.19;5071038;28;20198;-68
2020/12/12 05:31:10;;;;;;;13.53;9.60;;;;;;;5.40;100.00;94309.34;5070960;28;20212;-67
2020/12/12 05:33:37;;;;;;;15.37;11.13;;;;;;;5.38;100.00;94301.16;5071103;28;20606;-68
2020/12/12 05:36:04;;;;;;;16.30;10.80;;;;;;;5.33;100.00;94297.94;5070921;28;20283;-68
2020/12/12 05:38:31;;;;;;;19.20;10.90;;;;;;;5.26;100.00;94302.69;5070819;28;20675;-66
2020/12/12 05:40:58;;;;;;;17.13;10.80;;;;;;;5.24;100.00;94299.66;5070611;28;20728;-69
2020/12/12 05:43:33;;;;;;;22.13;13.87;;;;;;;5.23;100.00;94293.00;5070645;28;20194;-68
2020/12/12 05:46:00;;;;;;;20.83;13.60;;;;;;;5.22;100.00;94299.94;5070691;28;20287;-68
2020/12/12 05:48:28;;;;;;;44.00;25.87;;;;;;;5.22;100.00;94296.63;5070786;28;20228;-67
2020/12/12 05:50:55;;;;;;;40.97;26.83;;;;;;;5.21;100.00;94295.84;5070574;28;20283;-67
2020/12/12 05:53:22;;;;;;;41.73;26.97;;;;;;;5.22;100.00;94301.75;5070572;28;20196;-69
2020/12/12 05:55:49;;;;;;;36.07;24.30;;;;;;;5.22;100.00;94287.06;5070307;28;20232;-67
2020/12/12 05:58:16;;;;;;;37.17;23.97;;;;;;;5.26;100.00;94287.25;5070294;28;20695;-65
2020/12/12 06:00:43;;;;;;;43.57;28.43;;;;;;;5.31;100.00;94293.06;5070248;28;20208;-66
2020/12/12 06:03:31;;;;;;;40.07;24.47;;;;;;;5.32;100.00;94292.03;5070916;28;20189;-67
2020/12/12 06:06:07;;;;;;;30.97;19.73;;;;;;;5.33;100.00;94293.53;5070522;28;20698;-66
2020/12/12 06:08:35;;;;;;;31.77;19.77;;;;;;;5.35;100.00;94295.81;5070376;28;20192;-67
2020/12/12 06:11:05;;;;;;;25.40;14.83;;;;;;;5.34;100.00;94297.63;5069770;28;20196;-67
2020/12/12 06:13:35;;;;;;;20.17;13.43;;;;;;;5.36;100.00;94297.34;5070340;28;20196;-68
2020/12/12 06:16:04;;;;;;;18.93;13.40;;;;;;;5.31;100.00;94295.63;5070416;28;20228;-67
2020/12/12 06:18:42;;;;;;;23.10;14.27;;;;;;;5.27;100.00;94288.78;5070131;28;20203;-68
2020/12/12 06:21:10;;;;;;;27.60;16.33;;;;;;;5.19;100.00;94290.22;5070235;28;20670;-66
2020/12/12 06:23:38;;;;;;;24.07;14.03;;;;;;;5.22;100.00;94292.22;5070596;28;20226;-68
2020/12/12 06:26:06;;;;;;;24.37;14.30;;;;;;;5.19;100.00;94295.38;5070077;28;20203;-68
2020/12/12 06:28:40;;;;;;;24.80;15.00;;;;;;;5.23;100.00;94288.56;5069922;28;20203;-68
2020/12/12 06:31:09;;;;;;;24.80;15.60;;;;;;;5.27;100.00;94289.56;5069965;28;20215;-68
2020/12/12 06:33:49;;;;;;;21.87;13.53;;;;;;;5.23;100.00;94285.25;5069923;28;20287;-64
2020/12/12 06:36:26;;;;;;;21.50;13.67;;;;;;;5.19;100.00;94293.56;5069965;28;20205;-65
2020/12/12 06:39:18;;;;;;;24.67;14.97;;;;;;;5.18;100.00;94286.88;5070241;28;20197;-68
2020/12/12 06:41:47;;;;;;;21.17;13.33;;;;;;;5.20;100.00;94292.50;5069898;28;20230;-68
2020/12/12 06:44:31;;;;;;;23.30;13.83;;;;;;;5.16;100.00;94289.00;5070267;28;20736;-69
2020/12/12 06:46:58;;;;;;;23.53;14.00;;;;;;;5.13;100.00;94286.25;5070234;28;20200;-69
2020/12/12 06:49:26;;;;;;;24.73;14.67;;;;;;;5.14;100.00;94282.59;5069979;28;20279;-68
2020/12/12 06:51:53;;;;;;;27.00;15.30;;;;;;;5.09;100.00;94283.47;5070518;28;20242;-69
2020/12/12 06:54:21;;;;;;;27.30;14.20;;;;;;;5.10;100.00;94279.84;5069787;28;20315;-67
2020/12/12 06:56:48;;;;;;;28.80;13.90;;;;;;;5.11;100.00;94281.38;5069849;28;20283;-68
2020/12/12 06:59:30;;;;;;;37.70;19.87;;;;;;;5.19;100.00;94283.25;5070208;28;20197;-67
2020/12/12 07:01:58;;;;;;;29.50;16.80;;;;;;;5.18;100.00;94276.56;5069892;28;20665;-68
2020/12/12 07:04:30;;;;;;;28.63;16.90;;;;;;;5.16;100.00;94281.25;5069743;28;20188;-67
2020/12/12 07:07:03;;;;;;;27.63;16.33;;;;;;;5.09;100.00;94280.88;5070228;28;20197;-68
2020/12/12 07:09:30;;;;;;;25.30;14.13;;;;;;;5.15;100.00;94281.53;5069826;28;20200;-67
2020/12/12 07:11:58;;;;;;;25.10;15.13;;;;;;;5.23;100.00;94274.97;5069930;28;20197;-67
2020/12/12 07:14:25;;;;;;;23.80;13.83;;;;;;;5.23;100.00;94272.41;5069637;28;20729;-68
2020/12/12 07:16:54;;;;;;;24.97;13.53;;;;;;;5.30;100.00;94283.03;5070003;28;20192;-68
2020/12/12 07:19:36;;;;;;;23.60;12.60;;;;;;;5.33;100.00;94272.19;5069698;28;20207;-68
2020/12/12 07:22:05;;;;;;;24.33;13.27;;;;;;;5.35;100.00;94270.06;5070635;28;20196;-67
2020/12/12 07:24:32;;;;;;;25.90;14.33;;;;;;;5.29;100.00;94266.06;5073778;28;20192;-68
2020/12/12 07:26:59;;;;;;;19.80;12.80;;;;;;;5.32;100.00;94268.84;5073594;28;20285;-67
2020/12/12 07:29:27;;;;;;;24.83;10.57;;;;;;;5.30;100.00;94270.16;5073362;28;20205;-68
2020/12/12 07:31:54;;;;;;;21.70;11.40;;;;;;;5.37;100.00;94270.53;5073168;28;20351;-68
2020/12/12 07:34:22;;;;;;;22.67;13.07;;;;;;;5.35;100.00;94264.91;5073648;28;20307;-65
2020/12/12 07:36:59;;;;;;;22.93;12.03;;;;;;;5.30;100.00;94263.22;5073278;28;20192;-68
2020/12/12 07:39:30;;;;;;;26.00;10.57;;;;;;;5.40;100.00;94263.00;5073341;28;20215;-68
2020/12/12 07:41:58;;;;;;;24.07;11.27;;;;;;;5.38;100.00;94265.09;5073466;28;20228;-67
2020/12/12 07:44:26;;;;;;;25.17;11.17;;;;;;;5.36;100.00;94263.88;5073445;28;20196;-67
2020/12/12 07:47:00;;;;;;;12.47;6.43;;;;;;;5.31;100.00;94259.59;5073106;28;20206;-67
2020/12/12 07:49:28;;;;;;;16.40;8.73;;;;;;;5.35;100.00;94257.94;5072987;28;20191;-64
2020/12/12 07:52:07;;;;;;;18.27;7.17;;;;;;;5.35;100.00;94262.34;5072896;28;20690;-69
2020/12/12 07:54:36;;;;;;;30.63;12.20;;;;;;;5.38;100.00;94264.34;5072717;28;20273;-67
2020/12/12 07:57:05;;;;;;;16.53;7.97;;;;;;;5.41;100.00;94261.19;5072912;28;20203;-68
2020/12/12 07:59:31;;;;;;;19.10;10.17;;;;;;;5.26;100.00;94261.50;5073384;28;20275;-69
2020/12/12 08:02:03;;;;;;;17.37;9.87;;;;;;;5.25;100.00;94259.97;5072726;28;20189;-66
2020/12/12 08:04:31;;;;;;;10.53;6.10;;;;;;;5.35;100.00;94270.06;5072746;28;20192;-69
2020/12/12 08:06:58;;;;;;;10.27;5.40;;;;;;;5.26;100.00;94259.69;5072722;28;20662;-69
2020/12/12 08:09:26;;;;;;;10.07;5.03;;;;;;;5.14;100.00;94260.19;5072759;28;20269;-69
2020/12/12 08:11:57;;;;;;;10.67;5.30;;;;;;;5.19;100.00;94254.94;5072754;28;20200;-67
2020/12/12 08:14:25;;;;;;;11.53;7.50;;;;;;;5.16;100.00;94252.19;5072367;28;20228;-67
2020/12/12 08:16:57;;;;;;;8.13;4.87;;;;;;;5.06;100.00;94263.44;5072442;28;20196;-66
2020/12/12 08:19:24;;;;;;;12.03;6.27;;;;;;;5.17;100.00;94251.91;5072399;28;20193;-67
2020/12/12 08:22:03;;;;;;;11.03;5.70;;;;;;;5.13;100.00;94255.34;5072401;28;20689;-68
2020/12/12 08:24:30;;;;;;;14.23;6.93;;;;;;;5.17;100.00;94249.31;5072558;28;20203;-69
2020/12/12 08:26:57;;;;;;;12.93;6.10;;;;;;;5.20;100.00;94255.69;5072325;28;20253;-67
2020/12/12 08:29:24;;;;;;;6.10;3.00;;;;;;;5.13;100.00;94258.66;5072494;28;20279;-70
2020/12/12 08:31:51;;;;;;;6.10;4.80;;;;;;;5.14;100.00;94255.03;5071944;28;20224;-69
2020/12/12 08:34:21;;;;;;;10.20;5.43;;;;;;;5.14;100.00;94254.28;5071534;28;20208;-67
2020/12/12 08:36:47;;;;;;;6.90;4.37;;;;;;;5.04;100.00;94250.09;5072344;28;20200;-69
2020/12/12 08:39:14;;;;;;;11.73;6.20;;;;;;;5.09;100.00;94251.78;5072153;28;20201;-68
2020/12/12 08:41:46;;;;;;;6.57;4.07;;;;;;;5.01;100.00;94257.63;5072055;28;20235;-69
2020/12/12 08:44:23;;;;;;;3.77;2.60;;;;;;;5.01;100.00;94252.47;5072095;28;20189;-70
2020/12/12 08:46:53;;;;;;;5.80;2.80;;;;;;;5.01;100.00;94253.25;5072032;28;20196;-68
2020/12/12 08:49:20;;;;;;;7.50;3.83;;;;;;;5.01;100.00;94250.69;5072049;28;20205;-69
2020/12/12 08:51:52;;;;;;;7.53;4.50;;;;;;;5.00;100.00;94249.16;5071851;28;20203;-69
2020/12/12 08:54:19;;;;;;;9.40;4.40;;;;;;;5.09;100.00;94252.56;5071805;28;20222;-69
2020/12/12 08:56:47;;;;;;;9.90;6.60;;;;;;;5.11;100.00;94247.91;5071734;28;20576;-68
2020/12/12 08:59:20;;;;;;;6.67;4.00;;;;;;;5.18;100.00;94244.94;5071677;28;20192;-69
2020/12/12 09:01:48;;;;;;;11.13;5.90;;;;;;;5.18;100.00;94250.09;5071893;28;20196;-68
2020/12/12 09:04:20;;;;;;;7.90;3.93;;;;;;;5.07;100.00;94252.09;5071795;28;20250;-70
2020/12/12 09:06:52;;;;;;;8.07;4.23;;;;;;;5.13;100.00;94239.91;5071589;28;20200;-69
2020/12/12 09:09:20;;;;;;;7.83;3.77;;;;;;;5.04;100.00;94242.38;5071481;28;20228;-69
2020/12/12 09:11:53;;;;;;;7.07;4.30;;;;;;;5.18;100.00;94245.66;5071609;28;20207;-69
2020/12/12 09:14:20;;;;;;;8.33;5.63;;;;;;;5.33;100.00;94242.00;5071306;28;20204;-67
2020/12/12 09:16:49;;;;;;;9.73;5.40;;;;;;;5.28;100.00;94243.97;5071296;28;20205;-68
2020/12/12 09:19:16;;;;;;;9.23;5.27;;;;;;;5.32;100.00;94244.91;5071259;28;20684;-68
2020/12/12 09:21:43;;;;;;;9.70;5.63;;;;;;;5.33;100.00;94243.84;5071363;28;20204;-69
2020/12/12 09:24:09;;;;;;;9.37;4.90;;;;;;;5.38;100.00;94239.31;5071123;28;20200;-69
2020/12/12 09:26:36;;;;;;;15.03;7.57;;;;;;;5.40;100.00;94232.09;5071367;28;20206;-69
2020/12/12 09:29:04;;;;;;;8.67;4.40;;;;;;;5.53;99.98;94231.25;5071319;28;20673;-69
2020/12/12 09:31:31;;;;;;;7.90;4.10;;;;;;;5.50;100.00;94225.94;5070908;28;20217;-68
2020/12/12 09:33:58;;;;;;;6.50;3.93;;;;;;;5.52;100.00;94226.44;5071041;28;20283;-70
2020/12/12 09:36:25;;;;;;;7.03;3.63;;;;;;;5.57;99.69;94231.47;5070981;28;20228;-68
2020/12/12 09:38:52;;;;;;;23.07;11.87;;;;;;;5.51;100.00;94225.66;5070975;28;20212;-67
2020/12/12 09:41:19;;;;;;;7.07;4.57;;;;;;;5.46;100.00;94222.44;5070638;28;20319;-69
2020/12/12 09:43:46;;;;;;;13.00;6.60;;;;;;;5.49;100.00;94224.41;5070934;28;20201;-68
2020/12/12 09:46:15;;;;;;;12.90;7.43;;;;;;;5.55;100.00;94229.16;5069977;28;20750;-69
2020/12/12 09:48:42;;;;;;;7.10;4.83;;;;;;;5.61;100.00;94217.69;5070850;28;20192;-71
2020/12/12 09:51:10;;;;;;;10.47;6.40;;;;;;;5.60;100.00;94210.25;5070586;28;20242;-66
2020/12/12 09:53:40;;;;;;;7.53;5.47;;;;;;;5.55;100.00;94223.25;5070733;28;20550;-69
2020/12/12 09:56:08;;;;;;;7.77;5.87;;;;;;;5.49;100.00;94212.28;5070753;28;20224;-68
2020/12/12 09:58:35;;;;;;;9.80;6.30;;;;;;;5.69;100.00;94210.31;5070895;28;20200;-68
2020/12/12 10:01:02;;;;;;;15.83;10.43;;;;;;;5.60;100.00;94211.03;5070532;28;20244;-68
2020/12/12 10:03:30;;;;;;;18.03;11.77;;;;;;;5.80;100.00;94209.78;5071066;28;20188;-69
2020/12/12 10:05:56;;;;;;;16.43;10.37;;;;;;;6.02;100.00;94207.22;5070475;28;20573;-69
2020/12/12 10:08:23;;;;;;;41.70;27.53;;;;;;;6.09;99.09;94206.00;5070342;28;20202;-69
2020/12/12 10:10:50;;;;;;;11.43;7.70;;;;;;;6.12;99.69;94210.59;5070401;28;20193;-69
2020/12/12 10:13:17;;;;;;;8.50;5.83;;;;;;;6.23;97.89;94202.28;5070460;28;20204;-69
2020/12/12 10:15:43;;;;;;;11.47;6.23;;;;;;;6.12;96.84;94211.38;5070253;28;20238;-69
2020/12/12 10:18:10;;;;;;;9.00;5.53;;;;;;;6.05;97.95;94205.84;5070292;28;20207;-69
2020/12/12 10:20:38;;;;;;;8.00;5.30;;;;;;;6.19;98.43;94205.75;5070105;28;20195;-69
2020/12/12 10:23:06;;;;;;;11.97;8.10;;;;;;;6.22;97.65;94200.78;5070259;28;20193;-67
2020/12/12 10:25:33;;;;;;;11.97;7.57;;;;;;;6.22;97.77;94198.22;5070301;28;20618;-66
2020/12/12 10:27:59;;;;;;;15.00;9.57;;;;;;;6.40;97.04;94199.03;5070312;28;20228;-69
2020/12/12 10:30:27;;;;;;;28.37;17.73;;;;;;;6.28;96.86;94203.97;5070018;28;20664;-68
2020/12/12 10:32:54;;;;;;;18.13;11.67;;;;;;;6.27;97.86;94199.91;5070055;28;20587;-68
2020/12/12 10:35:20;;;;;;;17.67;11.67;;;;;;;6.33;98.03;94196.88;5070008;28;20263;-69
2020/12/12 10:37:48;;;;;;;14.23;8.20;;;;;;;6.26;96.53;94191.41;5070016;28;20194;-68
2020/12/12 10:40:19;;;;;;;18.07;11.17;;;;;;;6.20;98.03;94192.56;5070285;28;20242;-69
2020/12/12 10:42:46;;;;;;;13.27;9.13;;;;;;;6.27;97.38;94187.75;5070253;28;20193;-69
2020/12/12 10:45:13;;;;;;;22.83;15.43;;;;;;;6.24;97.44;94188.34;5069969;28;20196;-68
2020/12/12 10:47:40;;;;;;;8.70;5.70;;;;;;;6.17;97.30;94192.41;5069943;28;20195;-66
2020/12/12 10:50:07;;;;;;;9.03;6.20;;;;;;;6.19;97.47;94190.28;5070078;28;20276;-69
2020/12/12 10:52:35;;;;;;;14.43;8.57;;;;;;;6.20;96.87;94184.06;5069736;28;20194;-69
2020/12/12 10:55:03;;;;;;;14.50;9.40;;;;;;;6.19;96.97;94185.91;5069742;28;20316;-70
2020/12/12 10:57:29;;;;;;;16.23;9.93;;;;;;;6.25;97.64;94181.38;5071754;28;20283;-70
2020/12/12 10:59:56;;;;;;;32.43;18.43;;;;;;;6.25;97.28;94179.56;5073848;28;20692;-67
2020/12/12 11:02:23;;;;;;;37.43;23.83;;;;;;;6.25;98.15;94173.63;5074149;28;20220;-68
2020/12/12 11:04:50;;;;;;;22.80;13.13;;;;;;;6.27;97.91;94172.28;5073795;28;20637;-70
2020/12/12 11:07:16;;;;;;;23.30;14.23;;;;;;;5.98;97.39;94175.31;5073995;28;20223;-70
2020/12/12 11:09:43;;;;;;;16.47;10.07;;;;;;;6.12;97.33;94180.41;5074384;28;20206;-70
2020/12/12 11:12:14;;;;;;;25.40;14.20;;;;;;;6.12;98.17;94174.50;5073776;28;20200;-65
2020/12/12 11:14:41;;;;;;;16.17;9.60;;;;;;;6.08;97.60;94179.47;5073526;28;20205;-70
2020/12/12 11:17:08;;;;;;;16.70;9.57;;;;;;;6.11;97.77;94178.88;5073625;28;20719;-67
2020/12/12 11:19:35;;;;;;;22.37;12.93;;;;;;;6.29;96.95;94174.56;5073572;28;20661;-69
2020/12/12 11:22:01;;;;;;;21.23;12.43;;;;;;;6.18;96.70;94174.06;5073589;28;20301;-69
2020/12/12 11:24:28;;;;;;;18.73;10.97;;;;;;;6.26;95.79;94177.72;5073493;28;20192;-69
2020/12/12 11:26:55;;;;;;;16.33;9.60;;;;;;;6.19;97.08;94169.66;5073455;28;20199;-70